Time;durP1;ratioP1;P1;durP2;ratioP2;P2;SDS_P1;SDS_P2;PMS_P1;PMS_P2;Temp;Humidity;BMP_temperature;BMP_pressure;BME280_temperature;BME280_humidity;BME280_pressure;Samples;Min_cycle;Max_cycle;Signal;HPM_P1;HPM_P2
2021/09/03 00:01:56;;;;;;;19.67;9.95;;;14.90;99.90;;;;;;4742729;29;20042;-80
2021/09/03 00:04:23;;;;;;;15.32;10.55;;;14.90;99.90;;;;;;4739281;29;20055;-79
2021/09/03 00:06:50;;;;;;;17.55;11.50;;;14.90;99.90;;;;;;4729600;30;20059;-79
2021/09/03 00:09:18;;;;;;;20.35;13.77;;;14.90;99.90;;;;;;4737948;30;20059;-79
2021/09/03 00:11:45;;;;;;;17.10;10.80;;;14.90;99.90;;;;;;4753608;29;20046;-79
2021/09/03 00:14:15;;;;;;;15.43;9.90;;;14.90;99.90;;;;;;4752736;29;20055;-79
2021/09/03 00:16:43;;;;;;;14.25;10.07;;;14.90;99.90;;;;;;4740099;29;20089;-79
2021/09/03 00:19:10;;;;;;;14.02;9.80;;;14.80;99.90;;;;;;4739159;29;20051;-79
2021/09/03 00:21:40;;;;;;;11.77;9.70;;;14.90;99.90;;;;;;4747137;30;20534;-79
2021/09/03 00:24:08;;;;;;;15.27;9.43;;;14.80;99.90;;;;;;4740774;29;20047;-79
2021/09/03 00:26:35;;;;;;;22.15;13.55;;;14.80;99.90;;;;;;4740421;30;20066;-79
2021/09/03 00:29:03;;;;;;;19.13;12.18;;;14.80;99.90;;;;;;4749593;30;20047;-79
2021/09/03 00:31:30;;;;;;;15.55;10.73;;;14.80;99.90;;;;;;4723260;29;20076;-80
2021/09/03 00:33:57;;;;;;;19.00;11.00;;;14.70;99.90;;;;;;4737788;30;20051;-81
2021/09/03 00:36:24;;;;;;;17.98;11.88;;;14.70;99.90;;;;;;4755405;30;20055;-80
2021/09/03 00:38:50;;;;;;;23.33;14.02;;;14.70;99.90;;;;;;4749733;30;20407;-80
2021/09/03 00:41:18;;;;;;;17.42;11.50;;;14.70;99.90;;;;;;4739858;29;20051;-81
2021/09/03 00:43:48;;;;;;;19.45;13.10;;;14.70;99.90;;;;;;4745152;30;20492;-81
2021/09/03 00:46:17;;;;;;;16.33;10.98;;;14.70;99.90;;;;;;4741958;29;20055;-80
2021/09/03 00:48:44;;;;;;;16.42;12.38;;;14.60;99.90;;;;;;4736787;30;20428;-80
2021/09/03 00:51:10;;;;;;;16.33;10.45;;;14.60;99.90;;;;;;4723757;30;20058;-81
2021/09/03 00:53:38;;;;;;;17.25;11.20;;;14.60;99.90;;;;;;4737300;29;20051;-81
2021/09/03 00:56:05;;;;;;;18.77;11.77;;;14.50;99.90;;;;;;4751911;29;20051;-80
2021/09/03 00:58:32;;;;;;;33.63;18.95;;;14.50;99.90;;;;;;4736068;29;20456;-81
2021/09/03 01:00:59;;;;;;;22.75;14.05;;;14.50;99.90;;;;;;4737011;30;20062;-81
2021/09/03 01:03:26;;;;;;;19.58;11.90;;;14.50;99.90;;;;;;4745166;29;20047;-80
2021/09/03 01:05:53;;;;;;;21.58;12.65;;;14.40;99.90;;;;;;4729168;29;20051;-81
2021/09/03 01:08:20;;;;;;;17.52;12.60;;;14.50;99.90;;;;;;4736068;30;20055;-80
2021/09/03 01:10:47;;;;;;;16.95;11.90;;;14.40;99.90;;;;;;4739484;30;20063;-81
2021/09/03 01:13:15;;;;;;;24.20;15.57;;;14.40;99.90;;;;;;4756304;29;20055;-81
2021/09/03 01:15:42;;;;;;;21.65;13.80;;;14.40;99.90;;;;;;4753058;29;20380;-80
2021/09/03 01:18:09;;;;;;;21.13;14.10;;;14.40;99.90;;;;;;4739929;29;20062;-81
2021/09/03 01:20:36;;;;;;;17.92;13.30;;;14.40;99.90;;;;;;4760570;29;20043;-81
2021/09/03 01:23:03;;;;;;;18.42;12.65;;;14.40;99.90;;;;;;4758678;29;20039;-81
2021/09/03 01:25:33;;;;;;;21.40;14.25;;;14.30;99.90;;;;;;4740298;30;20043;-80
2021/09/03 01:28:00;;;;;;;19.10;14.32;;;14.30;99.90;;;;;;4738766;29;20050;-81
2021/09/03 01:30:27;;;;;;;19.15;13.35;;;14.30;99.90;;;;;;4738220;30;20055;-80
2021/09/03 01:32:54;;;;;;;26.27;15.63;;;14.20;99.90;;;;;;4739367;30;20051;-81
2021/09/03 01:35:20;;;;;;;23.67;14.23;;;14.20;99.90;;;;;;4739090;29;20063;-81
2021/09/03 01:37:47;;;;;;;21.98;14.02;;;14.20;99.90;;;;;;4772581;29;20042;-81
2021/09/03 01:40:16;;;;;;;21.35;14.32;;;14.20;99.90;;;;;;4736414;30;20055;-81
2021/09/03 01:42:43;;;;;;;23.27;14.57;;;14.20;99.90;;;;;;4736143;30;20062;-80
2021/09/03 01:45:10;;;;;;;22.52;13.48;;;14.10;99.90;;;;;;4752516;30;20066;-81
2021/09/03 01:47:37;;;;;;;20.70;14.05;;;14.10;99.90;;;;;;4739150;30;20066;-81
2021/09/03 01:50:06;;;;;;;15.10;10.95;;;14.10;99.90;;;;;;4735157;30;20051;-80
2021/09/03 01:52:36;;;;;;;21.50;14.95;;;14.10;99.90;;;;;;4754073;29;20057;-81
2021/09/03 01:55:03;;;;;;;16.55;12.23;;;14.10;99.90;;;;;;4751554;29;20416;-81
2021/09/03 01:57:33;;;;;;;20.63;13.85;;;14.10;99.90;;;;;;4737342;29;20070;-81
2021/09/03 02:00:00;;;;;;;20.05;14.43;;;14.10;99.90;;;;;;4752207;30;20055;-81
2021/09/03 02:02:29;;;;;;;21.35;13.52;;;14.10;99.90;;;;;;4736744;30;20051;-80
2021/09/03 02:04:55;;;;;;;19.23;12.88;;;14.10;99.90;;;;;;4753350;30;20043;-80
2021/09/03 02:07:22;;;;;;;20.42;13.45;;;14.00;99.90;;;;;;4750780;30;20063;-81
2021/09/03 02:09:49;;;;;;;17.92;12.80;;;14.00;99.90;;;;;;4736496;30;21194;-81
2021/09/03 02:12:16;;;;;;;18.55;12.50;;;14.00;99.90;;;;;;4741020;30;20055;-80
2021/09/03 02:14:44;;;;;;;22.08;13.27;;;14.00;99.90;;;;;;4744085;29;20149;-81
2021/09/03 02:17:11;;;;;;;20.77;12.68;;;14.00;99.90;;;;;;4744696;29;20062;-81
2021/09/03 02:19:40;;;;;;;21.45;13.75;;;14.00;99.90;;;;;;4760559;29;20061;-81
2021/09/03 02:22:07;;;;;;;17.42;12.70;;;14.00;99.90;;;;;;4756308;29;20058;-80
2021/09/03 02:24:35;;;;;;;18.55;13.50;;;14.00;99.90;;;;;;4752713;30;20051;-80
2021/09/03 02:27:02;;;;;;;21.55;14.43;;;13.90;99.90;;;;;;4795212;29;20503;-79
2021/09/03 02:29:30;;;;;;;26.45;14.07;;;13.90;99.90;;;;;;4752364;29;20066;-78
2021/09/03 02:31:57;;;;;;;21.88;14.73;;;13.90;99.90;;;;;;4759462;29;20507;-79
2021/09/03 02:34:24;;;;;;;18.85;13.38;;;13.90;99.90;;;;;;4760615;30;20047;-79
2021/09/03 02:36:51;;;;;;;20.00;14.48;;;13.90;99.90;;;;;;4753818;29;20059;-79
2021/09/03 02:39:18;;;;;;;20.63;15.90;;;13.90;99.90;;;;;;4759288;29;20085;-79
2021/09/03 02:41:44;;;;;;;28.05;17.90;;;13.90;99.90;;;;;;4743937;29;20060;-79
2021/09/03 02:44:12;;;;;;;25.92;15.75;;;13.90;99.90;;;;;;4743070;29;20059;-79
2021/09/03 02:46:39;;;;;;;20.08;14.18;;;13.90;99.90;;;;;;4757765;30;20055;-79
2021/09/03 02:49:06;;;;;;;22.30;14.30;;;13.80;99.90;;;;;;4754914;29;20051;-79
2021/09/03 02:51:33;;;;;;;20.50;14.20;;;13.80;99.90;;;;;;4758339;29;20080;-79
2021/09/03 02:53:59;;;;;;;23.15;15.38;;;13.80;99.90;;;;;;4755396;29;20063;-79
2021/09/03 02:56:26;;;;;;;20.60;15.25;;;13.80;99.90;;;;;;4741211;29;20455;-79
2021/09/03 02:58:53;;;;;;;24.80;14.48;;;13.70;99.90;;;;;;4739563;30;20059;-79
2021/09/03 03:01:20;;;;;;;21.27;14.07;;;13.70;99.90;;;;;;4747739;29;20062;-78
2021/09/03 03:03:47;;;;;;;21.90;15.85;;;13.70;99.90;;;;;;4758280;29;20074;-79
2021/09/03 03:06:14;;;;;;;30.67;18.63;;;13.70;99.90;;;;;;4742777;29;20066;-79
2021/09/03 03:08:40;;;;;;;21.40;15.07;;;13.60;99.90;;;;;;4740082;30;20055;-79
2021/09/03 03:11:07;;;;;;;18.63;13.77;;;13.60;99.90;;;;;;4754332;30;20693;-78
2021/09/03 03:13:34;;;;;;;24.75;15.60;;;13.60;99.90;;;;;;4739602;29;20047;-79
2021/09/03 03:16:01;;;;;;;23.15;16.77;;;13.60;99.90;;;;;;4738989;29;20059;-78
2021/09/03 03:18:29;;;;;;;25.73;18.67;;;13.60;99.90;;;;;;4745263;29;20490;-79
2021/09/03 03:20:58;;;;;;;27.67;17.63;;;13.60;99.90;;;;;;4742930;29;20051;-79
2021/09/03 03:23:25;;;;;;;29.67;19.23;;;13.50;99.90;;;;;;4741749;30;20047;-79
2021/09/03 03:25:51;;;;;;;26.75;17.25;;;13.50;99.90;;;;;;4752931;29;20405;-79
2021/09/03 03:28:18;;;;;;;22.52;15.43;;;13.50;99.90;;;;;;4768835;30;20047;-79
2021/09/03 03:30:44;;;;;;;29.67;20.42;;;13.50;99.90;;;;;;4742955;29;20063;-79
2021/09/03 03:33:11;;;;;;;29.88;19.58;;;13.40;99.90;;;;;;4755727;30;20051;-79
2021/09/03 03:35:39;;;;;;;31.77;20.92;;;13.40;99.90;;;;;;4755844;29;20412;-78
2021/09/03 03:38:06;;;;;;;25.38;17.52;;;13.40;99.90;;;;;;4741918;29;20062;-78
2021/09/03 03:40:33;;;;;;;28.35;17.98;;;13.40;99.90;;;;;;4739473;29;20059;-79
2021/09/03 03:43:00;;;;;;;25.85;16.67;;;13.40;99.90;;;;;;4771635;30;20051;-79
2021/09/03 03:45:26;;;;;;;30.67;20.80;;;13.40;99.90;;;;;;4739715;30;20075;-79
2021/09/03 03:47:54;;;;;;;26.95;18.75;;;13.40;99.90;;;;;;4772514;29;20046;-78
2021/09/03 03:50:20;;;;;;;26.38;18.95;;;13.30;99.90;;;;;;4742215;29;20165;-79
2021/09/03 03:52:47;;;;;;;26.48;19.15;;;13.30;99.90;;;;;;4754220;30;20075;-79
2021/09/03 03:55:14;;;;;;;28.33;20.00;;;13.30;99.90;;;;;;4739477;29;20055;-79
2021/09/03 03:57:41;;;;;;;36.25;24.63;;;13.30;99.90;;;;;;4759072;29;20051;-79
2021/09/03 04:00:08;;;;;;;33.58;20.95;;;13.30;99.90;;;;;;4740791;30;20055;-79
2021/09/03 04:02:35;;;;;;;35.63;23.50;;;13.20;99.90;;;;;;4752157;29;20059;-78
2021/09/03 04:05:03;;;;;;;26.35;20.33;;;13.20;99.90;;;;;;4760643;29;20047;-79
2021/09/03 04:07:29;;;;;;;27.35;18.67;;;13.20;99.90;;;;;;4744536;29;20055;-79
2021/09/03 04:09:56;;;;;;;23.17;17.25;;;13.20;99.90;;;;;;4740874;29;20403;-79
2021/09/03 04:12:25;;;;;;;28.17;19.42;;;13.20;99.90;;;;;;4742994;30;20058;-78
2021/09/03 04:15:01;;;;;;;28.58;18.27;;;13.10;99.90;;;;;;4744278;30;20051;-79
2021/09/03 04:17:29;;;;;;;53.55;33.35;;;13.20;99.90;;;;;;4740628;29;20063;-79
2021/09/03 04:19:55;;;;;;;30.70;22.00;;;13.10;99.90;;;;;;4757454;29;20926;-79
2021/09/03 04:22:22;;;;;;;27.58;19.35;;;13.10;99.90;;;;;;4745165;29;20692;-79
2021/09/03 04:24:51;;;;;;;30.77;20.52;;;13.10;99.90;;;;;;4744742;29;20051;-79
2021/09/03 04:27:18;;;;;;;28.48;20.52;;;13.00;99.90;;;;;;4738675;29;20051;-78
2021/09/03 04:29:45;;;;;;;31.05;20.00;;;13.00;99.90;;;;;;4738217;30;20066;-79
2021/09/03 04:32:12;;;;;;;26.42;20.10;;;13.00;99.90;;;;;;4742334;30;20059;-80
2021/09/03 04:34:38;;;;;;;24.92;17.85;;;13.00;99.90;;;;;;4727093;29;20065;-81
2021/09/03 04:37:06;;;;;;;29.48;19.77;;;13.00;99.90;;;;;;4742208;29;20054;-79
2021/09/03 04:39:33;;;;;;;28.73;19.75;;;13.00;99.90;;;;;;4740500;29;20893;-79
2021/09/03 04:42:00;;;;;;;27.70;20.55;;;13.00;99.90;;;;;;4756876;29;20610;-79
2021/09/03 04:44:27;;;;;;;26.15;19.30;;;13.00;99.90;;;;;;4755326;29;20054;-80
2021/09/03 04:46:54;;;;;;;25.30;18.58;;;13.00;99.90;;;;;;4738303;29;20510;-82
2021/09/03 04:49:20;;;;;;;26.27;19.33;;;13.00;99.90;;;;;;4736873;30;20051;-83
2021/09/03 04:51:47;;;;;;;28.92;20.30;;;13.00;99.90;;;;;;4766902;30;20054;-82
2021/09/03 04:54:14;;;;;;;26.73;17.67;;;12.90;99.90;;;;;;4755706;29;20516;-82
2021/09/03 04:56:41;;;;;;;25.45;19.23;;;12.90;99.90;;;;;;4746093;29;20059;-80
2021/09/03 04:59:07;;;;;;;29.40;20.25;;;12.90;99.90;;;;;;4752262;29;20050;-79
2021/09/03 05:01:35;;;;;;;45.80;32.35;;;13.00;99.90;;;;;;4745461;30;20062;-80
2021/09/03 05:04:01;;;;;;;37.92;28.25;;;12.90;99.90;;;;;;4738135;29;20047;-80
2021/09/03 05:06:28;;;;;;;44.53;33.22;;;12.90;99.90;;;;;;4738280;30;20047;-79
2021/09/03 05:08:55;;;;;;;34.83;24.63;;;12.90;99.90;;;;;;4738897;30;20055;-82
2021/09/03 05:11:21;;;;;;;31.83;22.40;;;13.00;99.90;;;;;;4741316;30;20062;-78
2021/09/03 05:13:48;;;;;;;35.53;24.70;;;12.90;99.90;;;;;;4769413;30;20051;-78
2021/09/03 05:16:15;;;;;;;26.42;20.00;;;12.90;99.90;;;;;;4752044;29;20059;-78
2021/09/03 05:18:42;;;;;;;35.78;26.88;;;13.00;99.90;;;;;;4740564;29;20064;-77
2021/09/03 05:21:08;;;;;;;34.65;24.33;;;12.90;99.90;;;;;;4756930;29;20077;-77
2021/09/03 05:23:36;;;;;;;37.47;26.73;;;12.90;99.90;;;;;;4755504;29;20055;-78
2021/09/03 05:26:03;;;;;;;31.00;23.73;;;13.00;99.90;;;;;;4739822;29;20055;-80
2021/09/03 05:28:29;;;;;;;32.28;21.02;;;13.00;99.90;;;;;;4752772;29;20050;-79
2021/09/03 05:30:56;;;;;;;34.97;23.30;;;13.00;99.90;;;;;;4754542;30;20066;-79
2021/09/03 05:33:22;;;;;;;35.25;23.10;;;13.10;99.90;;;;;;4752145;29;20510;-79
2021/09/03 05:35:49;;;;;;;34.45;24.08;;;13.10;99.90;;;;;;4742990;29;20082;-79
2021/09/03 05:38:15;;;;;;;31.77;22.13;;;13.10;99.90;;;;;;4738396;30;20050;-79
2021/09/03 05:40:42;;;;;;;31.08;20.63;;;13.20;99.90;;;;;;4755025;30;20047;-79
2021/09/03 05:43:08;;;;;;;35.05;22.83;;;13.20;99.90;;;;;;4735929;29;20047;-79
2021/09/03 05:45:36;;;;;;;29.60;20.55;;;13.20;99.90;;;;;;4768699;29;20045;-79
2021/09/03 05:48:02;;;;;;;29.98;21.63;;;13.30;99.90;;;;;;4737152;29;20051;-79
2021/09/03 05:50:30;;;;;;;29.23;20.38;;;13.40;99.90;;;;;;4742575;29;20061;-80
2021/09/03 05:52:56;;;;;;;27.55;19.25;;;13.40;99.90;;;;;;4743417;30;20414;-80
2021/09/03 05:55:23;;;;;;;31.00;19.80;;;13.40;99.90;;;;;;4738507;30;20084;-80
2021/09/03 05:57:52;;;;;;;29.50;21.20;;;13.50;99.90;;;;;;4752984;29;20048;-81
2021/09/03 06:00:19;;;;;;;29.98;20.10;;;13.60;99.90;;;;;;4753957;29;20407;-80
2021/09/03 06:02:46;;;;;;;26.25;18.50;;;13.70;99.90;;;;;;4770637;29;20051;-80
2021/09/03 06:05:12;;;;;;;36.25;24.50;;;13.80;99.90;;;;;;4738661;30;20051;-80
2021/09/03 06:07:39;;;;;;;37.85;22.25;;;13.90;99.90;;;;;;4772175;29;20039;-80
2021/09/03 06:10:15;;;;;;;33.72;23.20;;;14.00;99.90;;;;;;4756482;29;20058;-80
2021/09/03 06:12:41;;;;;;;32.85;24.25;;;14.10;99.90;;;;;;4754885;29;20055;-80
2021/09/03 06:15:10;;;;;;;27.13;19.85;;;14.20;99.90;;;;;;4756281;30;20056;-80
2021/09/03 06:17:37;;;;;;;31.25;21.25;;;14.40;99.90;;;;;;4740013;29;20085;-80
2021/09/03 06:20:05;;;;;;;34.83;23.17;;;14.50;99.90;;;;;;4754313;29;20051;-81
2021/09/03 06:22:32;;;;;;;31.90;22.60;;;14.60;99.90;;;;;;4771777;29;20424;-80
2021/09/03 06:25:01;;;;;;;38.45;25.42;;;14.70;99.90;;;;;;4753741;29;20051;-81
2021/09/03 06:27:28;;;;;;;31.40;20.98;;;14.80;99.90;;;;;;4744689;29;20070;-81
2021/09/03 06:29:54;;;;;;;32.08;21.42;;;14.90;99.90;;;;;;4754285;29;20176;-81
2021/09/03 06:32:23;;;;;;;31.92;21.40;;;15.00;99.90;;;;;;4755418;30;20043;-81
2021/09/03 06:34:55;;;;;;;29.38;21.38;;;15.20;99.90;;;;;;4749830;30;20082;-81
2021/09/03 06:37:22;;;;;;;30.27;21.90;;;15.30;99.90;;;;;;4760681;29;20058;-81
2021/09/03 06:39:56;;;;;;;25.55;18.80;;;15.40;99.90;;;;;;4769690;29;20050;-81
2021/09/03 06:42:26;;;;;;;30.08;19.58;;;15.50;99.90;;;;;;4726058;30;20481;-81
2021/09/03 06:45:52;;;;;;;28.67;21.25;;;15.60;99.90;;;;;;4769355;29;20039;-81
2021/09/03 06:48:42;;;;;;;27.48;20.60;;;15.80;99.90;;;;;;4745550;30;20062;-82
2021/09/03 06:51:23;;;;;;;25.65;19.23;;;15.90;99.90;;;;;;4746396;30;20055;-81
2021/09/03 06:54:40;;;;;;;25.40;18.35;;;16.00;99.90;;;;;;4752018;29;20070;-82
2021/09/03 06:57:22;;;;;;;29.40;20.52;;;16.20;99.90;;;;;;4751253;29;20439;-81
2021/09/03 07:00:13;;;;;;;26.48;18.02;;;16.40;99.90;;;;;;4768498;29;20519;-81
2021/09/03 07:02:51;;;;;;;24.10;16.88;;;16.50;99.90;;;;;;4754753;29;20047;-81
2021/09/03 07:05:23;;;;;;;19.92;14.75;;;16.60;99.90;;;;;;4749965;30;20050;-81
2021/09/03 07:07:52;;;;;;;21.65;15.23;;;16.80;99.90;;;;;;4739917;29;20052;-78
2021/09/03 07:10:19;;;;;;;25.17;16.70;;;17.00;99.90;;;;;;4767058;30;20054;-79
2021/09/03 07:12:45;;;;;;;25.70;15.63;;;17.10;99.90;;;;;;4737070;29;20059;-80
2021/09/03 07:15:12;;;;;;;21.40;15.90;;;17.30;99.90;;;;;;4740386;30;20059;-80
2021/09/03 07:17:39;;;;;;;23.77;17.33;;;17.40;99.90;;;;;;4751871;29;20051;-80
2021/09/03 07:20:06;;;;;;;24.67;15.70;;;17.60;99.90;;;;;;4756744;29;20791;-80
2021/09/03 07:22:32;;;;;;;22.77;15.63;;;17.60;99.90;;;;;;4741613;30;20523;-80
2021/09/03 07:24:59;;;;;;;21.08;14.27;;;17.70;99.90;;;;;;4754699;29;20066;-80
2021/09/03 07:27:26;;;;;;;22.90;13.90;;;17.80;99.90;;;;;;4754335;30;20397;-80
2021/09/03 07:29:52;;;;;;;15.38;10.85;;;18.00;99.90;;;;;;4769917;29;20043;-80
2021/09/03 07:32:19;;;;;;;23.45;14.35;;;18.10;99.90;;;;;;4761188;29;20131;-79
2021/09/03 07:34:45;;;;;;;19.38;13.40;;;18.30;99.90;;;;;;4759477;29;20054;-80
2021/09/03 07:37:11;;;;;;;21.45;14.45;;;18.40;99.90;;;;;;4771308;29;20067;-82
2021/09/03 07:39:38;;;;;;;18.55;13.25;;;18.50;99.90;;;;;;4756162;29;20054;-84
2021/09/03 07:42:04;;;;;;;18.02;12.40;;;18.60;99.90;;;;;;4753591;30;20056;-81
2021/09/03 07:44:31;;;;;;;17.55;12.95;;;18.70;99.90;;;;;;4748129;29;20058;-81
2021/09/03 07:46:57;;;;;;;21.23;13.23;;;18.90;99.90;;;;;;4755641;30;20042;-80
2021/09/03 07:49:24;;;;;;;14.20;10.98;;;19.00;99.90;;;;;;4770592;29;20058;-80
2021/09/03 07:51:50;;;;;;;16.90;12.02;;;19.10;99.90;;;;;;4740824;29;20915;-81
2021/09/03 07:54:17;;;;;;;19.10;11.73;;;19.30;99.90;;;;;;4752607;30;20407;-82
2021/09/03 07:56:44;;;;;;;14.52;10.30;;;19.40;99.90;;;;;;4782904;29;20055;-85
2021/09/03 07:59:13;;;;;;;18.65;12.23;;;19.50;99.90;;;;;;4766889;29;20062;-83
2021/09/03 08:01:40;;;;;;;20.83;12.25;;;19.60;99.90;;;;;;4742961;29;20054;-82
2021/09/03 08:04:06;;;;;;;22.42;17.17;;;19.70;99.90;;;;;;4726088;29;20055;-81
2021/09/03 08:06:33;;;;;;;18.15;13.45;;;19.80;99.90;;;;;;4741989;29;20051;-81
2021/09/03 08:09:01;;;;;;;17.13;10.45;;;19.90;99.90;;;;;;4755603;29;20058;-81
2021/09/03 08:11:30;;;;;;;15.45;10.80;;;20.10;99.90;;;;;;4751386;30;20051;-84
2021/09/03 08:13:56;;;;;;;12.60;9.65;;;20.30;99.90;;;;;;4737968;29;20423;-81
2021/09/03 08:16:23;;;;;;;17.77;9.75;;;20.40;99.90;;;;;;4757201;30;20051;-81
2021/09/03 08:18:52;;;;;;;12.90;9.05;;;20.40;99.90;;;;;;4738826;30;20504;-81
2021/09/03 08:21:21;;;;;;;14.35;9.70;;;20.50;99.90;;;;;;4753176;30;20514;-84
2021/09/03 08:23:47;;;;;;;10.60;7.70;;;20.70;99.90;;;;;;4749069;30;20060;-82
2021/09/03 08:26:17;;;;;;;12.20;8.00;;;20.80;99.90;;;;;;4739699;29;20050;-79
2021/09/03 08:28:44;;;;;;;14.18;8.35;;;20.80;99.90;;;;;;4747336;29;20051;-79
2021/09/03 08:31:11;;;;;;;13.48;8.68;;;20.90;99.90;;;;;;4752653;29;20055;-79
2021/09/03 08:33:38;;;;;;;10.32;6.95;;;21.10;99.90;;;;;;4743984;29;20077;-79
2021/09/03 08:36:06;;;;;;;14.15;7.65;;;21.20;99.90;;;;;;4756220;30;20051;-82
2021/09/03 08:38:33;;;;;;;12.43;8.10;;;21.30;99.50;;;;;;4745379;29;20070;-81
2021/09/03 08:41:00;;;;;;;13.10;7.95;;;21.40;99.10;;;;;;4760498;29;20051;-83
2021/09/03 08:43:30;;;;;;;15.65;8.43;;;21.40;98.70;;;;;;4756602;29;20407;-85
2021/09/03 08:46:05;;;;;;;12.70;6.65;;;21.40;98.40;;;;;;4770148;29;20407;-83
2021/09/03 08:48:32;;;;;;;11.10;7.25;;;21.50;98.00;;;;;;4770085;29;20045;-80
2021/09/03 08:51:01;;;;;;;9.95;6.25;;;21.50;97.90;;;;;;4743797;29;20059;-82
2021/09/03 08:53:29;;;;;;;11.63;7.63;;;21.60;97.90;;;;;;4733198;29;20512;-82
2021/09/03 08:55:56;;;;;;;10.55;6.70;;;21.70;97.50;;;;;;4756851;29;20061;-84
2021/09/03 08:58:22;;;;;;;8.55;5.97;;;21.80;97.60;;;;;;4740148;29;20961;-80
2021/09/03 09:01:12;;;;;;;9.15;5.82;;;21.90;97.50;;;;;;4760540;29;20043;-84
2021/09/03 09:03:44;;;;;;;10.68;6.57;;;22.10;97.30;;;;;;4748330;29;20903;-81
2021/09/03 09:06:22;;;;;;;11.80;7.93;;;22.20;96.90;;;;;;4760159;29;20544;-81
2021/09/03 09:09:03;;;;;;;12.95;7.75;;;22.30;96.60;;;;;;4755723;29;20051;-81
2021/09/03 09:11:31;;;;;;;12.73;8.10;;;22.40;96.20;;;;;;4756525;29;20534;-81
2021/09/03 09:14:00;;;;;;;10.80;6.65;;;22.40;95.40;;;;;;4757693;30;20047;-81
2021/09/03 09:16:30;;;;;;;11.32;6.68;;;22.40;95.50;;;;;;4740989;29;20062;-80
2021/09/03 09:18:59;;;;;;;14.93;6.68;;;22.50;95.70;;;;;;4769273;29;20350;-84
2021/09/03 09:21:33;;;;;;;12.05;6.95;;;22.60;95.70;;;;;;4744904;30;20062;-86
2021/09/03 09:24:09;;;;;;;9.60;6.40;;;22.80;95.60;;;;;;4737354;29;20043;-85
2021/09/03 09:26:49;;;;;;;11.27;7.28;;;22.90;95.50;;;;;;4765886;29;20046;-82
2021/09/03 09:29:28;;;;;;;12.40;6.78;;;23.00;94.40;;;;;;4743356;29;20408;-85
2021/09/03 09:32:03;;;;;;;13.57;8.48;;;23.00;93.90;;;;;;4766673;29;20047;-86
2021/09/03 09:34:33;;;;;;;8.35;5.82;;;22.90;93.80;;;;;;4770535;29;20610;-86
2021/09/03 09:37:02;;;;;;;7.78;5.07;;;23.00;94.00;;;;;;4756124;29;20488;-85
2021/09/03 09:39:49;;;;;;;11.70;7.43;;;23.10;94.10;;;;;;4748229;29;20063;-85
2021/09/03 09:42:33;;;;;;;13.15;7.32;;;23.30;93.80;;;;;;4757149;29;20051;-84
2021/09/03 09:45:08;;;;;;;11.60;8.07;;;23.30;93.50;;;;;;4758589;29;20058;-84
2021/09/03 09:47:36;;;;;;;13.80;7.55;;;23.30;93.10;;;;;;4754192;29;20046;-84
2021/09/03 09:50:26;;;;;;;12.23;6.63;;;23.40;92.90;;;;;;4737307;30;20062;-87
2021/09/03 09:52:53;;;;;;;13.70;6.70;;;23.50;93.00;;;;;;4735217;29;20055;-82
2021/09/03 09:55:19;;;;;;;9.48;7.18;;;23.60;92.90;;;;;;4756721;30;20047;-81
2021/09/03 09:57:50;;;;;;;7.55;5.53;;;23.70;92.50;;;;;;4749405;29;20066;-81
2021/09/03 10:00:17;;;;;;;9.77;7.32;;;23.70;92.20;;;;;;4753722;30;20054;-82
2021/09/03 10:02:44;;;;;;;15.02;7.38;;;23.70;92.20;;;;;;4756403;30;20054;-85
2021/09/03 10:05:10;;;;;;;8.23;6.55;;;23.80;92.10;;;;;;4754764;29;20499;-86
2021/09/03 10:07:40;;;;;;;11.50;6.95;;;23.90;92.00;;;;;;4737258;30;20051;-86
2021/09/03 10:10:07;;;;;;;9.93;6.70;;;24.00;91.90;;;;;;4761789;29;20058;-87
2021/09/03 10:12:35;;;;;;;9.85;7.00;;;24.00;91.50;;;;;;4756985;29;20058;-86
2021/09/03 10:15:01;;;;;;;11.82;7.88;;;24.00;91.10;;;;;;4739840;30;20064;-86
2021/09/03 10:17:30;;;;;;;11.25;6.63;;;24.00;91.20;;;;;;4740089;29;20052;-86
2021/09/03 10:19:57;;;;;;;12.57;8.75;;;24.00;91.20;;;;;;4761159;29;20042;-87
2021/09/03 10:22:24;;;;;;;13.57;8.45;;;24.10;91.20;;;;;;4741895;30;20051;-85
2021/09/03 10:25:08;;;;;;;13.25;9.63;;;24.20;91.00;;;;;;4741608;29;20054;-88
2021/09/03 10:27:35;;;;;;;8.75;4.82;;;24.40;91.00;;;;;;4734788;30;20058;-89
2021/09/03 10:30:19;;;;;;;10.38;5.57;;;24.60;91.10;;;;;;4746665;29;20118;-89
2021/09/03 10:32:46;;;;;;;11.68;6.65;;;24.90;91.00;;;;;;4773452;30;20043;-87
2021/09/03 10:35:21;;;;;;;12.77;7.80;;;25.10;90.20;;;;;;4753473;30;20039;-88
2021/09/03 10:37:49;;;;;;;;;;;25.30;89.60;;;;;;4758121;30;20046;-88
2021/09/03 10:40:21;;;;;;;9.85;5.82;;;25.50;89.80;;;;;;4751975;30;19928;-88
2021/09/03 10:42:49;;;;;;;;;;;25.70;89.00;;;;;;4770894;30;20054;-89
2021/09/03 10:45:24;;;;;;;7.93;5.25;;;25.90;88.40;;;;;;4752483;30;19918;-89
2021/09/03 10:47:58;;;;;;;6.80;4.60;;;26.20;87.70;;;;;;4761826;30;20440;-89
2021/09/03 10:50:53;;;;;;;11.57;5.03;;;26.50;86.50;;;;;;4789289;29;20062;-89
2021/09/03 10:53:27;;;;;;;7.97;4.60;;;26.70;85.70;;;;;;4766047;29;20186;-82
2021/09/03 10:56:01;;;;;;;6.55;5.30;;;27.10;84.20;;;;;;4774225;29;20047;-85
2021/09/03 10:58:36;;;;;;;7.38;4.43;;;27.40;82.80;;;;;;4755439;29;20054;-84
2021/09/03 11:01:30;;;;;;;8.10;4.35;;;27.70;82.60;;;;;;4775344;29;20862;-84
2021/09/03 11:04:11;;;;;;;10.00;6.22;;;28.20;81.70;;;;;;4775830;29;20037;-84
2021/09/03 11:07:02;;;;;;;9.88;5.25;;;28.30;78.20;;;;;;4747937;29;20047;-84
2021/09/03 11:09:30;;;;;;;8.15;4.70;;;28.40;77.80;;;;;;4769588;30;20039;-86
2021/09/03 11:11:58;;;;;;;6.18;4.47;;;28.50;76.90;;;;;;4741489;30;20059;-85
2021/09/03 11:14:27;;;;;;;7.53;4.00;;;28.70;74.80;;;;;;4753457;29;20047;-85
2021/09/03 11:16:58;;;;;;;7.53;5.07;;;29.00;74.80;;;;;;4775966;30;20488;-85
2021/09/03 11:19:33;;;;;;;9.80;6.38;;;29.30;72.40;;;;;;4755568;30;20058;-89
2021/09/03 11:22:10;;;;;;;6.20;4.70;;;29.50;71.60;;;;;;4774232;30;20070;-88
2021/09/03 11:24:37;;;;;;;7.07;4.00;;;29.60;71.20;;;;;;4756193;30;20066;-86
2021/09/03 11:27:06;;;;;;;8.85;5.32;;;29.80;71.10;;;;;;4746589;29;20174;-87
2021/09/03 11:29:46;;;;;;;8.93;6.00;;;30.00;69.70;;;;;;4754894;30;20058;-79
2021/09/03 11:32:18;;;;;;;9.90;5.13;;;30.20;68.40;;;;;;4742312;30;20054;-79
2021/09/03 11:34:52;;;;;;;7.20;4.50;;;30.30;68.20;;;;;;4782516;29;20050;-79
2021/09/03 11:37:25;;;;;;;7.95;4.38;;;30.60;68.40;;;;;;4757069;29;20054;-78
2021/09/03 11:39:54;;;;;;;8.73;4.47;;;31.10;67.40;;;;;;4756868;30;20048;-81
2021/09/03 11:42:26;;;;;;;9.82;4.97;;;31.40;64.40;;;;;;4741460;30;20526;-82
2021/09/03 11:45:01;;;;;;;6.60;4.90;;;31.50;63.10;;;;;;4753164;30;20534;-81
2021/09/03 11:47:32;;;;;;;7.85;4.97;;;31.50;63.20;;;;;;4768881;29;20047;-80
2021/09/03 11:49:59;;;;;;;7.47;4.53;;;31.60;63.70;;;;;;4766718;29;20453;-80
2021/09/03 11:52:28;;;;;;;8.18;5.20;;;31.80;63.30;;;;;;4739096;29;20047;-82
2021/09/03 11:54:59;;;;;;;6.72;4.78;;;32.10;60.80;;;;;;4755893;29;20511;-81
2021/09/03 11:57:47;;;;;;;8.32;4.65;;;32.20;59.70;;;;;;4757730;29;20461;-80
2021/09/03 12:00:18;;;;;;;8.98;5.45;;;32.40;59.90;;;;;;4771209;29;20035;-79
2021/09/03 12:02:45;;;;;;;6.80;5.10;;;32.80;58.90;;;;;;4777314;29;20046;-79
2021/09/03 12:05:11;;;;;;;8.55;4.55;;;32.80;58.60;;;;;;4759950;29;20058;-79
2021/09/03 12:07:37;;;;;;;6.00;4.30;;;33.00;58.00;;;;;;4770527;29;20047;-80
2021/09/03 12:10:04;;;;;;;5.78;4.50;;;33.30;57.70;;;;;;4757270;29;20483;-79
2021/09/03 12:12:31;;;;;;;8.18;4.90;;;33.70;56.80;;;;;;4753562;29;20481;-80
2021/09/03 12:15:01;;;;;;;8.10;4.43;;;33.90;56.30;;;;;;4771578;30;20054;-81
2021/09/03 12:17:38;;;;;;;8.30;4.80;;;34.10;55.20;;;;;;4771423;29;20527;-82
2021/09/03 12:20:10;;;;;;;5.57;3.67;;;34.10;53.50;;;;;;4770324;30;20050;-81
2021/09/03 12:23:06;;;;;;;7.53;3.88;;;34.20;54.10;;;;;;4761733;29;20492;-83
2021/09/03 12:25:35;;;;;;;5.63;3.92;;;34.60;54.10;;;;;;4763242;29;20088;-83
2021/09/03 12:28:12;;;;;;;7.03;4.50;;;34.80;52.40;;;;;;4757326;29;20051;-79
2021/09/03 12:30:40;;;;;;;7.63;4.90;;;34.90;51.10;;;;;;4747791;30;20055;-81
2021/09/03 12:33:28;;;;;;;5.15;3.97;;;35.00;50.40;;;;;;4780101;30;20782;-84
2021/09/03 12:36:07;;;;;;;5.57;3.67;;;34.90;49.90;;;;;;4775224;29;20044;-84
2021/09/03 12:38:43;;;;;;;4.68;3.67;;;35.00;50.50;;;;;;4799748;29;20034;-83
2021/09/03 12:41:09;;;;;;;4.63;3.67;;;35.30;50.90;;;;;;4774920;29;20059;-84
2021/09/03 12:43:36;;;;;;;4.32;3.33;;;35.70;49.90;;;;;;4748957;30;20043;-86
2021/09/03 12:46:13;;;;;;;6.60;4.38;;;35.90;48.40;;;;;;4777479;29;20055;-88